sensor_id;sensor_type;location;lat;lon;timestamp;temperature;humidity
6690;DHT22;3382;51.576;8.076;2023-04-09T00:00:18;6.40;99.90
6690;DHT22;3382;51.576;8.076;2023-04-09T00:02:43;6.40;99.90
6690;DHT22;3382;51.576;8.076;2023-04-09T00:05:09;6.30;99.90
6690;DHT22;3382;51.576;8.076;2023-04-09T00:07:35;6.30;99.90
6690;DHT22;3382;51.576;8.076;2023-04-09T00:10:00;6.30;99.90
6690;DHT22;3382;51.576;8.076;2023-04-09T00:12:26;6.20;99.90
6690;DHT22;3382;51.576;8.076;2023-04-09T00:14:51;6.20;99.90
6690;DHT22;3382;51.576;8.076;2023-04-09T00:17:17;6.20;99.90
6690;DHT22;3382;51.576;8.076;2023-04-09T00:19:42;6.10;99.90
6690;DHT22;3382;51.576;8.076;2023-04-09T00:22:08;6.10;99.90
6690;DHT22;3382;51.576;8.076;2023-04-09T00:24:34;6.00;99.90
6690;DHT22;3382;51.576;8.076;2023-04-09T00:26:59;6.00;99.90
6690;DHT22;3382;51.576;8.076;2023-04-09T00:29:25;6.00;99.90
6690;DHT22;3382;51.576;8.076;2023-04-09T00:31:51;6.00;99.90
6690;DHT22;3382;51.576;8.076;2023-04-09T00:34:17;6.00;99.90
6690;DHT22;3382;51.576;8.076;2023-04-09T00:36:42;6.00;99.90
6690;DHT22;3382;51.576;8.076;2023-04-09T00:39:08;6.00;99.90
6690;DHT22;3382;51.576;8.076;2023-04-09T00:41:34;6.00;99.90
6690;DHT22;3382;51.576;8.076;2023-04-09T00:43:59;6.00;99.90
6690;DHT22;3382;51.576;8.076;2023-04-09T00:46:25;6.00;99.90
6690;DHT22;3382;51.576;8.076;2023-04-09T00:48:50;5.90;99.90
6690;DHT22;3382;51.576;8.076;2023-04-09T00:51:16;5.90;99.90
6690;DHT22;3382;51.576;8.076;2023-04-09T00:53:41;5.90;99.90
6690;DHT22;3382;51.576;8.076;2023-04-09T00:56:09;5.80;99.90
6690;DHT22;3382;51.576;8.076;2023-04-09T00:58:36;5.90;99.90
6690;DHT22;3382;51.576;8.076;2023-04-09T01:01:01;5.90;99.90
6690;DHT22;3382;51.576;8.076;2023-04-09T01:03:27;5.90;99.90
6690;DHT22;3382;51.576;8.076;2023-04-09T01:06:03;5.90;99.90
6690;DHT22;3382;51.576;8.076;2023-04-09T01:11:32;5.90;99.90
6690;DHT22;3382;51.576;8.076;2023-04-09T01:14:26;5.90;99.90
6690;DHT22;3382;51.576;8.076;2023-04-09T01:17:02;5.90;99.90
6690;DHT22;3382;51.576;8.076;2023-04-09T01:22:21;5.80;99.90
6690;DHT22;3382;51.576;8.076;2023-04-09T01:27:46;5.80;99.90
6690;DHT22;3382;51.576;8.076;2023-04-09T01:30:18;5.80;99.90
6690;DHT22;3382;51.576;8.076;2023-04-09T01:32:44;5.80;99.90
6690;DHT22;3382;51.576;8.076;2023-04-09T01:35:10;5.80;99.90
6690;DHT22;3382;51.576;8.076;2023-04-09T01:37:36;5.90;99.90
6690;DHT22;3382;51.576;8.076;2023-04-09T01:40:03;5.90;99.90
6690;DHT22;3382;51.576;8.076;2023-04-09T01:42:29;5.90;99.90
6690;DHT22;3382;51.576;8.076;2023-04-09T01:44:55;5.90;99.90
6690;DHT22;3382;51.576;8.076;2023-04-09T01:47:21;5.90;99.90
6690;DHT22;3382;51.576;8.076;2023-04-09T01:49:47;5.90;99.90
6690;DHT22;3382;51.576;8.076;2023-04-09T01:52:13;5.80;99.90
6690;DHT22;3382;51.576;8.076;2023-04-09T01:54:39;5.90;99.90
6690;DHT22;3382;51.576;8.076;2023-04-09T01:57:04;5.80;99.90
6690;DHT22;3382;51.576;8.076;2023-04-09T01:59:30;5.70;99.90
6690;DHT22;3382;51.576;8.076;2023-04-09T02:02:00;5.70;99.90
6690;DHT22;3382;51.576;8.076;2023-04-09T02:04:36;5.60;99.90
6690;DHT22;3382;51.576;8.076;2023-04-09T02:07:28;5.60;99.90
6690;DHT22;3382;51.576;8.076;2023-04-09T02:09:56;5.60;99.90
6690;DHT22;3382;51.576;8.076;2023-04-09T02:12:24;5.50;99.90
6690;DHT22;3382;51.576;8.076;2023-04-09T02:14:51;5.50;99.90
6690;DHT22;3382;51.576;8.076;2023-04-09T02:17:17;5.40;99.90
6690;DHT22;3382;51.576;8.076;2023-04-09T02:19:44;5.40;99.90
6690;DHT22;3382;51.576;8.076;2023-04-09T02:22:11;5.50;99.90
6690;DHT22;3382;51.576;8.076;2023-04-09T02:24:37;5.40;99.90
6690;DHT22;3382;51.576;8.076;2023-04-09T02:27:03;5.40;99.90
6690;DHT22;3382;51.576;8.076;2023-04-09T02:29:29;5.40;99.90
6690;DHT22;3382;51.576;8.076;2023-04-09T02:31:55;5.40;99.90
6690;DHT22;3382;51.576;8.076;2023-04-09T02:34:21;5.30;99.90
6690;DHT22;3382;51.576;8.076;2023-04-09T02:36:47;5.20;99.90
6690;DHT22;3382;51.576;8.076;2023-04-09T02:39:12;5.20;99.90
6690;DHT22;3382;51.576;8.076;2023-04-09T02:41:38;5.20;99.90
6690;DHT22;3382;51.576;8.076;2023-04-09T02:44:04;5.20;99.90
6690;DHT22;3382;51.576;8.076;2023-04-09T02:46:29;5.20;99.90
6690;DHT22;3382;51.576;8.076;2023-04-09T02:48:55;5.20;99.90
6690;DHT22;3382;51.576;8.076;2023-04-09T02:51:20;5.10;99.90
6690;DHT22;3382;51.576;8.076;2023-04-09T02:53:46;5.10;99.90
6690;DHT22;3382;51.576;8.076;2023-04-09T02:56:12;5.10;99.90
6690;DHT22;3382;51.576;8.076;2023-04-09T02:58:37;5.10;99.90
6690;DHT22;3382;51.576;8.076;2023-04-09T03:01:03;5.10;99.90
6690;DHT22;3382;51.576;8.076;2023-04-09T03:03:28;5.10;99.90
6690;DHT22;3382;51.576;8.076;2023-04-09T03:05:55;5.00;99.90
6690;DHT22;3382;51.576;8.076;2023-04-09T03:08:21;4.90;99.90
6690;DHT22;3382;51.576;8.076;2023-04-09T03:10:47;4.90;99.90
6690;DHT22;3382;51.576;8.076;2023-04-09T03:13:12;4.90;99.90
6690;DHT22;3382;51.576;8.076;2023-04-09T03:15:38;4.80;99.90
6690;DHT22;3382;51.576;8.076;2023-04-09T03:18:03;4.70;99.90
6690;DHT22;3382;51.576;8.076;2023-04-09T03:20:29;4.70;99.90
6690;DHT22;3382;51.576;8.076;2023-04-09T03:22:55;4.70;99.90
6690;DHT22;3382;51.576;8.076;2023-04-09T03:25:20;4.70;99.90
6690;DHT22;3382;51.576;8.076;2023-04-09T03:27:46;4.70;99.90
6690;DHT22;3382;51.576;8.076;2023-04-09T03:30:11;4.60;99.90
6690;DHT22;3382;51.576;8.076;2023-04-09T03:32:37;4.60;99.90
6690;DHT22;3382;51.576;8.076;2023-04-09T03:35:03;4.60;99.90
6690;DHT22;3382;51.576;8.076;2023-04-09T03:37:28;4.60;99.90
6690;DHT22;3382;51.576;8.076;2023-04-09T03:39:54;4.60;99.90
6690;DHT22;3382;51.576;8.076;2023-04-09T03:42:20;4.60;99.90
6690;DHT22;3382;51.576;8.076;2023-04-09T03:44:45;4.60;99.90
6690;DHT22;3382;51.576;8.076;2023-04-09T03:47:11;4.50;99.90
6690;DHT22;3382;51.576;8.076;2023-04-09T03:49:37;4.50;99.90
6690;DHT22;3382;51.576;8.076;2023-04-09T03:52:02;4.40;99.90
6690;DHT22;3382;51.576;8.076;2023-04-09T03:54:29;4.30;99.90
6690;DHT22;3382;51.576;8.076;2023-04-09T03:56:54;4.30;99.90
6690;DHT22;3382;51.576;8.076;2023-04-09T03:59:21;4.30;99.90
6690;DHT22;3382;51.576;8.076;2023-04-09T04:01:47;4.30;99.90
6690;DHT22;3382;51.576;8.076;2023-04-09T04:04:13;4.10;99.90
6690;DHT22;3382;51.576;8.076;2023-04-09T04:06:39;4.30;99.90
6690;DHT22;3382;51.576;8.076;2023-04-09T04:09:05;4.30;99.90
6690;DHT22;3382;51.576;8.076;2023-04-09T04:11:30;4.30;99.90
6690;DHT22;3382;51.576;8.076;2023-04-09T04:13:56;4.20;99.90
6690;DHT22;3382;51.576;8.076;2023-04-09T04:16:21;4.20;99.90
6690;DHT22;3382;51.576;8.076;2023-04-09T04:18:47;4.20;99.90
6690;DHT22;3382;51.576;8.076;2023-04-09T04:21:13;4.10;99.90
6690;DHT22;3382;51.576;8.076;2023-04-09T04:23:39;4.10;99.90
6690;DHT22;3382;51.576;8.076;2023-04-09T04:26:08;4.10;99.90
6690;DHT22;3382;51.576;8.076;2023-04-09T04:28:37;4.10;99.90
6690;DHT22;3382;51.576;8.076;2023-04-09T04:31:10;4.10;99.90
6690;DHT22;3382;51.576;8.076;2023-04-09T04:33:37;4.10;99.90
6690;DHT22;3382;51.576;8.076;2023-04-09T04:36:06;4.10;99.90
6690;DHT22;3382;51.576;8.076;2023-04-09T04:38:33;4.10;99.90
6690;DHT22;3382;51.576;8.076;2023-04-09T04:40:59;4.10;99.90
6690;DHT22;3382;51.576;8.076;2023-04-09T04:43:25;4.10;99.90
6690;DHT22;3382;51.576;8.076;2023-04-09T04:45:50;4.10;99.90
6690;DHT22;3382;51.576;8.076;2023-04-09T04:48:16;4.10;99.90
6690;DHT22;3382;51.576;8.076;2023-04-09T04:50:42;4.00;99.90
6690;DHT22;3382;51.576;8.076;2023-04-09T04:53:07;4.00;99.90
6690;DHT22;3382;51.576;8.076;2023-04-09T04:55:36;4.00;99.90
6690;DHT22;3382;51.576;8.076;2023-04-09T04:58:04;4.00;99.90
6690;DHT22;3382;51.576;8.076;2023-04-09T05:00:30;3.90;99.90
6690;DHT22;3382;51.576;8.076;2023-04-09T05:02:56;3.90;99.90
6690;DHT22;3382;51.576;8.076;2023-04-09T05:05:21;3.90;99.90
6690;DHT22;3382;51.576;8.076;2023-04-09T05:07:47;3.90;99.90
6690;DHT22;3382;51.576;8.076;2023-04-09T05:10:13;3.90;99.90
6690;DHT22;3382;51.576;8.076;2023-04-09T05:12:38;3.90;99.90
6690;DHT22;3382;51.576;8.076;2023-04-09T05:15:04;3.90;99.90
6690;DHT22;3382;51.576;8.076;2023-04-09T05:17:30;3.90;99.90
6690;DHT22;3382;51.576;8.076;2023-04-09T05:19:56;3.90;99.90
6690;DHT22;3382;51.576;8.076;2023-04-09T05:22:22;3.90;99.90
6690;DHT22;3382;51.576;8.076;2023-04-09T05:24:48;4.10;99.90
6690;DHT22;3382;51.576;8.076;2023-04-09T05:27:14;3.90;99.90
6690;DHT22;3382;51.576;8.076;2023-04-09T05:29:39;4.00;99.90
6690;DHT22;3382;51.576;8.076;2023-04-09T05:32:05;4.00;99.90
6690;DHT22;3382;51.576;8.076;2023-04-09T05:34:32;4.10;99.90
6690;DHT22;3382;51.576;8.076;2023-04-09T05:36:58;4.10;99.90
6690;DHT22;3382;51.576;8.076;2023-04-09T05:39:24;4.30;99.90
6690;DHT22;3382;51.576;8.076;2023-04-09T05:41:50;4.40;99.90
6690;DHT22;3382;51.576;8.076;2023-04-09T05:44:16;4.60;99.90
6690;DHT22;3382;51.576;8.076;2023-04-09T05:46:42;4.80;99.90
6690;DHT22;3382;51.576;8.076;2023-04-09T05:49:08;5.00;99.90
6690;DHT22;3382;51.576;8.076;2023-04-09T05:51:33;5.20;99.90
6690;DHT22;3382;51.576;8.076;2023-04-09T05:54:00;5.30;99.90
6690;DHT22;3382;51.576;8.076;2023-04-09T05:56:25;5.50;99.90
6690;DHT22;3382;51.576;8.076;2023-04-09T05:58:52;5.70;99.90
6690;DHT22;3382;51.576;8.076;2023-04-09T06:01:18;5.90;99.90
6690;DHT22;3382;51.576;8.076;2023-04-09T06:03:44;6.10;99.90
6690;DHT22;3382;51.576;8.076;2023-04-09T06:06:09;6.10;99.90
6690;DHT22;3382;51.576;8.076;2023-04-09T06:08:35;6.30;99.90
6690;DHT22;3382;51.576;8.076;2023-04-09T06:11:01;6.50;99.90
6690;DHT22;3382;51.576;8.076;2023-04-09T06:13:27;6.60;99.90
6690;DHT22;3382;51.576;8.076;2023-04-09T06:15:53;6.80;99.90
6690;DHT22;3382;51.576;8.076;2023-04-09T06:18:19;7.10;99.90
6690;DHT22;3382;51.576;8.076;2023-04-09T06:20:44;7.30;99.90
6690;DHT22;3382;51.576;8.076;2023-04-09T06:23:10;7.40;99.90
6690;DHT22;3382;51.576;8.076;2023-04-09T06:25:36;7.50;99.90
6690;DHT22;3382;51.576;8.076;2023-04-09T06:28:01;7.70;99.90
6690;DHT22;3382;51.576;8.076;2023-04-09T06:30:27;7.90;99.90
6690;DHT22;3382;51.576;8.076;2023-04-09T06:32:53;8.10;99.90
6690;DHT22;3382;51.576;8.076;2023-04-09T06:35:19;8.10;99.90
6690;DHT22;3382;51.576;8.076;2023-04-09T06:37:45;8.20;99.90
6690;DHT22;3382;51.576;8.076;2023-04-09T06:40:11;8.30;99.90
6690;DHT22;3382;51.576;8.076;2023-04-09T06:42:36;8.40;99.90
6690;DHT22;3382;51.576;8.076;2023-04-09T06:45:03;8.30;99.90
6690;DHT22;3382;51.576;8.076;2023-04-09T06:47:33;8.40;99.90
6690;DHT22;3382;51.576;8.076;2023-04-09T06:49:59;8.40;99.90
6690;DHT22;3382;51.576;8.076;2023-04-09T06:52:25;8.40;99.90
6690;DHT22;3382;51.576;8.076;2023-04-09T06:54:50;8.50;99.90
6690;DHT22;3382;51.576;8.076;2023-04-09T06:57:16;8.60;99.90
6690;DHT22;3382;51.576;8.076;2023-04-09T06:59:41;8.80;99.90
6690;DHT22;3382;51.576;8.076;2023-04-09T07:02:08;8.70;99.90
6690;DHT22;3382;51.576;8.076;2023-04-09T07:04:33;8.80;99.90
6690;DHT22;3382;51.576;8.076;2023-04-09T07:06:59;8.80;99.90
6690;DHT22;3382;51.576;8.076;2023-04-09T07:09:25;8.90;99.90
6690;DHT22;3382;51.576;8.076;2023-04-09T07:11:51;8.90;99.90
6690;DHT22;3382;51.576;8.076;2023-04-09T07:14:16;8.90;99.90
6690;DHT22;3382;51.576;8.076;2023-04-09T07:16:42;9.10;99.90
6690;DHT22;3382;51.576;8.076;2023-04-09T07:19:10;9.10;99.90
6690;DHT22;3382;51.576;8.076;2023-04-09T07:21:36;9.20;99.90
6690;DHT22;3382;51.576;8.076;2023-04-09T07:24:02;9.30;99.90
6690;DHT22;3382;51.576;8.076;2023-04-09T07:26:28;9.40;99.90
6690;DHT22;3382;51.576;8.076;2023-04-09T07:28:54;9.60;99.90
6690;DHT22;3382;51.576;8.076;2023-04-09T07:31:20;9.70;99.90
6690;DHT22;3382;51.576;8.076;2023-04-09T07:33:46;9.90;99.90
6690;DHT22;3382;51.576;8.076;2023-04-09T07:36:11;10.00;99.90
6690;DHT22;3382;51.576;8.076;2023-04-09T07:38:37;10.00;99.90
6690;DHT22;3382;51.576;8.076;2023-04-09T07:41:02;10.10;99.90
6690;DHT22;3382;51.576;8.076;2023-04-09T07:43:30;10.30;99.90
6690;DHT22;3382;51.576;8.076;2023-04-09T07:45:56;10.40;99.90
6690;DHT22;3382;51.576;8.076;2023-04-09T07:48:21;10.50;99.90
6690;DHT22;3382;51.576;8.076;2023-04-09T07:50:47;10.60;99.90
6690;DHT22;3382;51.576;8.076;2023-04-09T07:53:13;10.70;99.90
6690;DHT22;3382;51.576;8.076;2023-04-09T07:55:39;10.90;99.90
6690;DHT22;3382;51.576;8.076;2023-04-09T07:58:05;11.10;99.90
6690;DHT22;3382;51.576;8.076;2023-04-09T08:00:30;11.20;99.90
6690;DHT22;3382;51.576;8.076;2023-04-09T08:02:56;11.40;99.90
6690;DHT22;3382;51.576;8.076;2023-04-09T08:05:22;11.60;99.90
6690;DHT22;3382;51.576;8.076;2023-04-09T08:07:50;11.80;99.90
6690;DHT22;3382;51.576;8.076;2023-04-09T08:10:15;12.00;99.90
6690;DHT22;3382;51.576;8.076;2023-04-09T08:12:41;12.20;99.90
6690;DHT22;3382;51.576;8.076;2023-04-09T08:15:07;12.30;99.90
6690;DHT22;3382;51.576;8.076;2023-04-09T08:17:33;12.40;99.90
6690;DHT22;3382;51.576;8.076;2023-04-09T08:20:01;12.60;99.90
6690;DHT22;3382;51.576;8.076;2023-04-09T08:22:27;13.00;99.90
6690;DHT22;3382;51.576;8.076;2023-04-09T08:24:54;13.10;99.90
6690;DHT22;3382;51.576;8.076;2023-04-09T08:27:20;13.20;99.90
6690;DHT22;3382;51.576;8.076;2023-04-09T08:29:46;13.50;99.90
6690;DHT22;3382;51.576;8.076;2023-04-09T08:32:12;13.70;99.90
6690;DHT22;3382;51.576;8.076;2023-04-09T08:34:37;13.90;99.90
6690;DHT22;3382;51.576;8.076;2023-04-09T08:37:03;13.90;99.90
6690;DHT22;3382;51.576;8.076;2023-04-09T08:39:29;14.10;99.90
6690;DHT22;3382;51.576;8.076;2023-04-09T08:41:57;14.30;99.90
6690;DHT22;3382;51.576;8.076;2023-04-09T08:44:26;14.50;99.90
6690;DHT22;3382;51.576;8.076;2023-04-09T08:46:52;14.60;99.90
6690;DHT22;3382;51.576;8.076;2023-04-09T08:49:19;14.60;99.90
6690;DHT22;3382;51.576;8.076;2023-04-09T08:51:46;14.80;99.90
6690;DHT22;3382;51.576;8.076;2023-04-09T08:54:16;14.80;99.90
6690;DHT22;3382;51.576;8.076;2023-04-09T08:56:47;14.80;99.90
6690;DHT22;3382;51.576;8.076;2023-04-09T08:59:16;14.90;99.90
6690;DHT22;3382;51.576;8.076;2023-04-09T09:01:43;15.20;99.90
6690;DHT22;3382;51.576;8.076;2023-04-09T09:04:11;15.40;99.90
6690;DHT22;3382;51.576;8.076;2023-04-09T09:06:38;15.60;99.90
6690;DHT22;3382;51.576;8.076;2023-04-09T09:09:07;15.70;99.90
6690;DHT22;3382;51.576;8.076;2023-04-09T09:11:38;15.80;99.90
6690;DHT22;3382;51.576;8.076;2023-04-09T09:14:09;15.90;99.90
6690;DHT22;3382;51.576;8.076;2023-04-09T09:16:40;16.00;99.90
6690;DHT22;3382;51.576;8.076;2023-04-09T09:19:08;16.00;99.90
6690;DHT22;3382;51.576;8.076;2023-04-09T09:21:34;16.00;99.90
6690;DHT22;3382;51.576;8.076;2023-04-09T09:24:01;16.10;99.90
6690;DHT22;3382;51.576;8.076;2023-04-09T09:26:40;16.30;99.90
6690;DHT22;3382;51.576;8.076;2023-04-09T09:29:06;16.40;99.90
6690;DHT22;3382;51.576;8.076;2023-04-09T09:31:54;16.40;99.90
6690;DHT22;3382;51.576;8.076;2023-04-09T09:34:21;16.40;99.90
6690;DHT22;3382;51.576;8.076;2023-04-09T09:36:47;16.50;99.90
6690;DHT22;3382;51.576;8.076;2023-04-09T09:39:14;16.60;99.90
6690;DHT22;3382;51.576;8.076;2023-04-09T09:41:42;16.80;99.90
6690;DHT22;3382;51.576;8.076;2023-04-09T09:44:09;16.70;99.90
6690;DHT22;3382;51.576;8.076;2023-04-09T09:46:36;16.70;99.90
6690;DHT22;3382;51.576;8.076;2023-04-09T09:49:07;16.70;99.90
6690;DHT22;3382;51.576;8.076;2023-04-09T09:51:35;16.80;99.90
6690;DHT22;3382;51.576;8.076;2023-04-09T09:54:02;16.90;99.90
6690;DHT22;3382;51.576;8.076;2023-04-09T09:56:34;17.00;99.90
6690;DHT22;3382;51.576;8.076;2023-04-09T09:59:09;17.00;99.90
6690;DHT22;3382;51.576;8.076;2023-04-09T10:01:36;17.10;98.70
6690;DHT22;3382;51.576;8.076;2023-04-09T10:04:05;17.10;98.50
6690;DHT22;3382;51.576;8.076;2023-04-09T10:06:34;17.30;97.50
6690;DHT22;3382;51.576;8.076;2023-04-09T10:09:03;17.40;94.90
6690;DHT22;3382;51.576;8.076;2023-04-09T10:11:32;17.10;92.60
6690;DHT22;3382;51.576;8.076;2023-04-09T10:13:59;16.90;93.10
6690;DHT22;3382;51.576;8.076;2023-04-09T10:16:26;16.90;92.60
6690;DHT22;3382;51.576;8.076;2023-04-09T10:18:57;16.90;92.20
6690;DHT22;3382;51.576;8.076;2023-04-09T10:24:13;17.10;92.50
6690;DHT22;3382;51.576;8.076;2023-04-09T10:26:40;17.20;92.80
6690;DHT22;3382;51.576;8.076;2023-04-09T10:29:11;17.30;92.80
6690;DHT22;3382;51.576;8.076;2023-04-09T10:32:05;17.40;92.30
6690;DHT22;3382;51.576;8.076;2023-04-09T10:34:38;17.50;91.20
6690;DHT22;3382;51.576;8.076;2023-04-09T10:37:13;17.40;90.40
6690;DHT22;3382;51.576;8.076;2023-04-09T10:39:43;17.30;90.00
6690;DHT22;3382;51.576;8.076;2023-04-09T10:42:14;17.10;88.50
6690;DHT22;3382;51.576;8.076;2023-04-09T10:44:40;17.00;88.60
6690;DHT22;3382;51.576;8.076;2023-04-09T10:47:10;17.00;89.60
6690;DHT22;3382;51.576;8.076;2023-04-09T10:49:40;17.00;89.30
6690;DHT22;3382;51.576;8.076;2023-04-09T10:52:07;17.00;88.30
6690;DHT22;3382;51.576;8.076;2023-04-09T10:59:36;17.00;88.20
6690;DHT22;3382;51.576;8.076;2023-04-09T11:05:26;17.20;88.70
6690;DHT22;3382;51.576;8.076;2023-04-09T11:08:03;17.20;88.60
6690;DHT22;3382;51.576;8.076;2023-04-09T11:10:30;17.10;88.80
6690;DHT22;3382;51.576;8.076;2023-04-09T11:12:56;17.10;87.20
6690;DHT22;3382;51.576;8.076;2023-04-09T11:15:22;17.00;86.20
6690;DHT22;3382;51.576;8.076;2023-04-09T11:17:48;16.90;85.50
6690;DHT22;3382;51.576;8.076;2023-04-09T11:20:20;17.00;85.90
6690;DHT22;3382;51.576;8.076;2023-04-09T11:22:50;17.00;86.80
6690;DHT22;3382;51.576;8.076;2023-04-09T11:25:24;16.90;86.00
6690;DHT22;3382;51.576;8.076;2023-04-09T11:27:51;16.90;86.80
6690;DHT22;3382;51.576;8.076;2023-04-09T11:30:17;16.70;85.60
6690;DHT22;3382;51.576;8.076;2023-04-09T11:32:43;16.40;85.10
6690;DHT22;3382;51.576;8.076;2023-04-09T11:35:13;16.00;87.50
6690;DHT22;3382;51.576;8.076;2023-04-09T11:37:40;15.80;89.00
6690;DHT22;3382;51.576;8.076;2023-04-09T11:40:13;15.70;90.20
6690;DHT22;3382;51.576;8.076;2023-04-09T11:42:39;15.70;91.10
6690;DHT22;3382;51.576;8.076;2023-04-09T11:45:05;15.70;92.10
6690;DHT22;3382;51.576;8.076;2023-04-09T11:47:32;15.80;92.50
6690;DHT22;3382;51.576;8.076;2023-04-09T11:49:58;15.90;92.70
6690;DHT22;3382;51.576;8.076;2023-04-09T11:52:23;15.90;92.60
6690;DHT22;3382;51.576;8.076;2023-04-09T11:54:49;15.90;92.70
6690;DHT22;3382;51.576;8.076;2023-04-09T11:57:16;15.80;92.00
6690;DHT22;3382;51.576;8.076;2023-04-09T11:59:41;15.80;91.70
6690;DHT22;3382;51.576;8.076;2023-04-09T12:02:07;15.80;91.80
6690;DHT22;3382;51.576;8.076;2023-04-09T12:04:33;15.80;92.20
6690;DHT22;3382;51.576;8.076;2023-04-09T12:06:58;15.70;90.80
6690;DHT22;3382;51.576;8.076;2023-04-09T12:09:24;15.70;91.70
6690;DHT22;3382;51.576;8.076;2023-04-09T12:11:50;15.80;92.20
6690;DHT22;3382;51.576;8.076;2023-04-09T12:14:17;15.90;92.30
6690;DHT22;3382;51.576;8.076;2023-04-09T12:16:43;15.90;91.90
6690;DHT22;3382;51.576;8.076;2023-04-09T12:19:12;15.90;91.10
6690;DHT22;3382;51.576;8.076;2023-04-09T12:24:11;15.80;91.30
6690;DHT22;3382;51.576;8.076;2023-04-09T12:26:36;15.70;91.70
6690;DHT22;3382;51.576;8.076;2023-04-09T12:29:02;15.70;92.50
6690;DHT22;3382;51.576;8.076;2023-04-09T12:31:27;15.80;93.10
6690;DHT22;3382;51.576;8.076;2023-04-09T12:33:53;15.90;92.20
6690;DHT22;3382;51.576;8.076;2023-04-09T12:36:18;15.80;92.20
6690;DHT22;3382;51.576;8.076;2023-04-09T12:38:44;15.80;92.30
6690;DHT22;3382;51.576;8.076;2023-04-09T12:41:10;15.80;92.00
6690;DHT22;3382;51.576;8.076;2023-04-09T12:43:37;15.80;91.90
6690;DHT22;3382;51.576;8.076;2023-04-09T12:46:03;15.80;91.90
6690;DHT22;3382;51.576;8.076;2023-04-09T12:48:28;15.80;92.00
6690;DHT22;3382;51.576;8.076;2023-04-09T12:50:54;15.80;91.70
6690;DHT22;3382;51.576;8.076;2023-04-09T12:53:20;15.80;92.10
6690;DHT22;3382;51.576;8.076;2023-04-09T12:55:45;15.80;92.40
6690;DHT22;3382;51.576;8.076;2023-04-09T12:58:11;16.00;92.50
6690;DHT22;3382;51.576;8.076;2023-04-09T13:00:36;15.80;92.90
6690;DHT22;3382;51.576;8.076;2023-04-09T13:03:02;16.00;93.40
6690;DHT22;3382;51.576;8.076;2023-04-09T13:05:28;16.00;93.10
6690;DHT22;3382;51.576;8.076;2023-04-09T13:07:55;16.10;92.90
6690;DHT22;3382;51.576;8.076;2023-04-09T13:10:21;16.20;92.70
6690;DHT22;3382;51.576;8.076;2023-04-09T13:12:47;16.20;91.90
6690;DHT22;3382;51.576;8.076;2023-04-09T13:15:12;16.10;91.10
6690;DHT22;3382;51.576;8.076;2023-04-09T13:17:38;16.00;90.50
6690;DHT22;3382;51.576;8.076;2023-04-09T13:20:04;16.00;90.00
6690;DHT22;3382;51.576;8.076;2023-04-09T13:22:29;15.90;89.90
6690;DHT22;3382;51.576;8.076;2023-04-09T13:24:55;16.00;90.10
6690;DHT22;3382;51.576;8.076;2023-04-09T13:27:21;16.00;90.20
6690;DHT22;3382;51.576;8.076;2023-04-09T13:29:46;16.10;90.40
6690;DHT22;3382;51.576;8.076;2023-04-09T13:32:12;16.10;90.40
6690;DHT22;3382;51.576;8.076;2023-04-09T13:34:38;16.20;90.40
6690;DHT22;3382;51.576;8.076;2023-04-09T13:37:04;16.20;90.40
6690;DHT22;3382;51.576;8.076;2023-04-09T13:39:30;16.30;90.50
6690;DHT22;3382;51.576;8.076;2023-04-09T13:41:55;16.30;90.00
6690;DHT22;3382;51.576;8.076;2023-04-09T13:44:22;16.30;89.30
6690;DHT22;3382;51.576;8.076;2023-04-09T13:46:48;16.30;89.10
6690;DHT22;3382;51.576;8.076;2023-04-09T13:49:14;16.40;88.50
6690;DHT22;3382;51.576;8.076;2023-04-09T13:51:40;16.30;88.50
6690;DHT22;3382;51.576;8.076;2023-04-09T13:54:06;16.30;87.20
6690;DHT22;3382;51.576;8.076;2023-04-09T13:56:33;16.40;87.50
6690;DHT22;3382;51.576;8.076;2023-04-09T13:58:58;16.30;86.60
6690;DHT22;3382;51.576;8.076;2023-04-09T14:01:24;16.40;86.40
6690;DHT22;3382;51.576;8.076;2023-04-09T14:03:51;16.30;85.90
6690;DHT22;3382;51.576;8.076;2023-04-09T14:06:17;16.30;85.40
6690;DHT22;3382;51.576;8.076;2023-04-09T14:08:43;16.30;86.00
6690;DHT22;3382;51.576;8.076;2023-04-09T14:11:08;16.40;86.20
6690;DHT22;3382;51.576;8.076;2023-04-09T14:13:38;16.50;86.70
6690;DHT22;3382;51.576;8.076;2023-04-09T14:16:04;16.60;87.00
6690;DHT22;3382;51.576;8.076;2023-04-09T14:18:30;16.60;85.80
6690;DHT22;3382;51.576;8.076;2023-04-09T14:20:56;16.60;85.60
6690;DHT22;3382;51.576;8.076;2023-04-09T14:23:22;16.60;85.30
6690;DHT22;3382;51.576;8.076;2023-04-09T14:25:48;16.60;85.10
6690;DHT22;3382;51.576;8.076;2023-04-09T14:28:13;16.60;84.30
6690;DHT22;3382;51.576;8.076;2023-04-09T14:30:39;16.50;83.10
6690;DHT22;3382;51.576;8.076;2023-04-09T14:33:04;16.50;83.10
6690;DHT22;3382;51.576;8.076;2023-04-09T14:35:30;16.60;83.60
6690;DHT22;3382;51.576;8.076;2023-04-09T14:37:56;16.60;83.60
6690;DHT22;3382;51.576;8.076;2023-04-09T14:40:22;16.60;83.00
6690;DHT22;3382;51.576;8.076;2023-04-09T14:42:47;16.60;82.70
6690;DHT22;3382;51.576;8.076;2023-04-09T14:45:14;16.60;83.10
6690;DHT22;3382;51.576;8.076;2023-04-09T14:47:40;16.60;83.40
6690;DHT22;3382;51.576;8.076;2023-04-09T14:50:06;16.50;82.60
6690;DHT22;3382;51.576;8.076;2023-04-09T14:52:31;16.50;82.50
6690;DHT22;3382;51.576;8.076;2023-04-09T14:54:57;16.40;82.40
6690;DHT22;3382;51.576;8.076;2023-04-09T14:57:23;16.40;82.70
6690;DHT22;3382;51.576;8.076;2023-04-09T14:59:49;16.40;82.50
6690;DHT22;3382;51.576;8.076;2023-04-09T15:02:14;16.30;82.00
6690;DHT22;3382;51.576;8.076;2023-04-09T15:04:40;16.30;81.80
6690;DHT22;3382;51.576;8.076;2023-04-09T15:07:06;16.30;82.10
6690;DHT22;3382;51.576;8.076;2023-04-09T15:09:31;16.30;82.00
6690;DHT22;3382;51.576;8.076;2023-04-09T15:11:57;16.40;82.30
6690;DHT22;3382;51.576;8.076;2023-04-09T15:14:22;16.30;82.30
6690;DHT22;3382;51.576;8.076;2023-04-09T15:16:48;16.30;82.30
6690;DHT22;3382;51.576;8.076;2023-04-09T15:19:14;16.20;82.70
6690;DHT22;3382;51.576;8.076;2023-04-09T15:21:39;16.20;83.00
6690;DHT22;3382;51.576;8.076;2023-04-09T15:24:05;16.10;82.60
6690;DHT22;3382;51.576;8.076;2023-04-09T15:26:33;16.10;82.90
6690;DHT22;3382;51.576;8.076;2023-04-09T15:29:01;16.10;83.30
6690;DHT22;3382;51.576;8.076;2023-04-09T15:31:28;16.10;83.40
6690;DHT22;3382;51.576;8.076;2023-04-09T15:33:54;16.10;83.10
6690;DHT22;3382;51.576;8.076;2023-04-09T15:36:19;16.10;82.70
6690;DHT22;3382;51.576;8.076;2023-04-09T15:38:45;16.10;83.10
6690;DHT22;3382;51.576;8.076;2023-04-09T15:41:10;16.00;82.50
6690;DHT22;3382;51.576;8.076;2023-04-09T15:43:36;16.00;82.20
6690;DHT22;3382;51.576;8.076;2023-04-09T15:46:08;16.00;82.30
6690;DHT22;3382;51.576;8.076;2023-04-09T15:48:35;15.90;82.10
6690;DHT22;3382;51.576;8.076;2023-04-09T15:51:01;15.90;83.20
6690;DHT22;3382;51.576;8.076;2023-04-09T15:53:29;15.90;82.70
6690;DHT22;3382;51.576;8.076;2023-04-09T15:55:55;15.80;83.00
6690;DHT22;3382;51.576;8.076;2023-04-09T15:58:21;15.80;83.50
6690;DHT22;3382;51.576;8.076;2023-04-09T16:00:46;15.80;83.30
6690;DHT22;3382;51.576;8.076;2023-04-09T16:03:15;15.70;83.40
6690;DHT22;3382;51.576;8.076;2023-04-09T16:05:41;15.80;84.20
6690;DHT22;3382;51.576;8.076;2023-04-09T16:08:07;15.80;83.70
6690;DHT22;3382;51.576;8.076;2023-04-09T16:10:36;15.80;83.20
6690;DHT22;3382;51.576;8.076;2023-04-09T16:13:01;15.80;83.40
6690;DHT22;3382;51.576;8.076;2023-04-09T16:15:27;15.80;82.90
6690;DHT22;3382;51.576;8.076;2023-04-09T16:17:53;15.90;82.80
6690;DHT22;3382;51.576;8.076;2023-04-09T16:20:19;15.80;82.30
6690;DHT22;3382;51.576;8.076;2023-04-09T16:22:44;15.80;82.30
6690;DHT22;3382;51.576;8.076;2023-04-09T16:25:10;15.80;82.10
6690;DHT22;3382;51.576;8.076;2023-04-09T16:27:36;15.80;82.40